Time,TemperatureF,DewpointF,PressureIn,WindDirection,WindDirectionDegrees,WindSpeedMPH,WindSpeedGustMPH,Humidity,HourlyPrecipIn,Conditions,Clouds,dailyrainin,SoftwareType,DateUTC
2013-05-29 00:01:00,73.4,66.5,29.87,South,177,11.5,11.5,79,0.00,CLR,,0.00,WeatherDisplay:10.37,2013-05-29 05:01:00,
2013-05-29 00:06:00,73.3,66.4,29.87,South,171,11.5,11.5,79,0.00,CLR,,0.00,WeatherDisplay:10.37,2013-05-29 05:06:00,
2013-05-29 00:11:00,73.1,66.6,29.87,South,178,11.5,11.5,80,0.00,CLR,,0.00,WeatherDisplay:10.37,2013-05-29 05:11:00,
2013-05-29 00:16:00,73.0,66.5,29.87,South,175,13.8,13.8,80,0.00,CLR,,0.00,WeatherDisplay:10.37,2013-05-29 05:16:00,
2013-05-29 00:21:00,72.9,66.4,29.87,South,184,12.7,12.7,80,0.00,CLR,,0.00,WeatherDisplay:10.37,2013-05-29 05:21:00,
2013-05-29 00:26:00,72.9,66.7,29.86,South,182,13.8,13.8,81,0.00,CLR,,0.00,WeatherDisplay:10.37,2013-05-29 05:26:00,
2013-05-29 00:31:00,72.9,66.7,29.87,SSW,194,11.5,11.5,81,0.00,CLR,,0.00,WeatherDisplay:10.37,2013-05-29 05:31:00,
2013-05-29 00:36:00,72.8,66.6,29.86,SSW,193,13.8,13.8,81,0.00,CLR,,0.00,WeatherDisplay:10.37,2013-05-29 05:36:00,
2013-05-29 00:41:00,72.8,66.6,29.86,SSW,197,11.5,11.5,81,0.00,CLR,,0.00,WeatherDisplay:10.37,2013-05-29 05:41:00,
2013-05-29 00:46:00,72.9,66.7,29.86,South,189,11.5,11.5,81,0.00,CLR,,0.00,WeatherDisplay:10.37,2013-05-29 05:46:00,
2013-05-29 00:51:00,73.1,66.9,29.86,South,186,13.8,13.8,81,0.00,CLR,,0.00,WeatherDisplay:10.37,2013-05-29 05:51:00,
2013-05-29 00:56:00,73.4,66.9,29.86,South,184,17.3,17.3,80,0.00,CLR,,0.00,WeatherDisplay:10.37,2013-05-29 05:56:00,
2013-05-29 01:01:00,73.5,66.9,29.85,South,181,15.0,15.0,80,0.00,CLR,,0.00,WeatherDisplay:10.37,2013-05-29 06:01:00,
2013-05-29 01:06:00,73.6,67.0,29.85,South,188,16.1,16.1,80,0.00,CLR,,0.00,WeatherDisplay:10.37,2013-05-29 06:06:00,
2013-05-29 01:11:00,73.5,66.9,29.85,SSW,211,19.6,19.6,80,0.00,CLR,,0.00,WeatherDisplay:10.37,2013-05-29 06:11:00,
2013-05-29 01:16:00,73.4,66.9,29.85,South,190,19.6,19.6,80,0.00,CLR,,0.00,WeatherDisplay:10.37,2013-05-29 06:16:00,
2013-05-29 01:21:00,73.3,66.8,29.86,SSW,196,16.1,16.1,80,0.00,CLR,,0.00,WeatherDisplay:10.37,2013-05-29 06:21:00,
2013-05-29 01:26:00,73.3,67.1,29.86,SSW,194,18.4,18.4,81,0.00,CLR,,0.00,WeatherDisplay:10.37,2013-05-29 06:26:00,
2013-05-29 01:31:00,73.2,67.0,29.85,South,188,16.1,16.1,81,0.00,CLR,,0.00,WeatherDisplay:10.37,2013-05-29 06:31:00,
2013-05-29 01:36:00,73.2,67.0,29.85,SSW,204,18.0,18.0,81,0.00,CLR,,0.00,WeatherDisplay:10.37,2013-05-29 06:36:00,
2013-05-29 01:41:00,73.2,67.0,29.86,SW,218,17.3,17.3,81,0.00,CLR,,0.00,WeatherDisplay:10.37,2013-05-29 06:41:00,
2013-05-29 01:46:00,73.3,66.8,29.86,South,184,24.2,24.2,80,0.00,CLR,,0.00,WeatherDisplay:10.37,2013-05-29 06:46:00,
2013-05-29 01:51:00,73.3,66.8,29.86,SSW,213,24.2,24.2,80,0.00,CLR,,0.00,WeatherDisplay:10.37,2013-05-29 06:51:00,
2013-05-29 01:56:00,73.3,66.8,29.86,SSW,204,18.4,18.4,80,0.00,CLR,,0.00,WeatherDisplay:10.37,2013-05-29 06:56:00,
2013-05-29 02:01:00,73.3,66.8,29.86,SSW,196,19.6,19.6,80,0.00,CLR,,0.00,WeatherDisplay:10.37,2013-05-29 07:01:00,
2013-05-29 02:06:00,73.3,66.8,29.86,South,182,21.9,21.9,80,0.00,CLR,,0.00,WeatherDisplay:10.37,2013-05-29 07:06:00,
2013-05-29 02:11:00,73.3,66.8,29.87,SSW,196,25.3,25.3,80,0.00,CLR,,0.00,WeatherDisplay:10.37,2013-05-29 07:11:00,
2013-05-29 02:17:00,73.3,66.8,29.87,South,180,18.0,18.0,80,0.00,CLR,,0.00,WeatherDisplay:10.37,2013-05-29 07:17:00,
2013-05-29 02:22:00,73.3,66.8,29.87,SSW,209,16.1,16.1,80,0.00,CLR,,0.00,WeatherDisplay:10.37,2013-05-29 07:22:00,
2013-05-29 02:26:00,73.1,66.6,29.88,WSW,237,18.4,18.4,80,0.00,CLR,,0.00,WeatherDisplay:10.37,2013-05-29 07:26:00,
2013-05-29 02:32:00,73.0,66.5,29.88,SSW,196,13.8,13.8,80,0.00,CLR,,0.00,WeatherDisplay:10.37,2013-05-29 07:32:00,
2013-05-29 02:37:00,73.0,66.5,29.88,SSW,205,16.1,16.1,80,0.00,CLR,,0.00,WeatherDisplay:10.37,2013-05-29 07:37:00,
2013-05-29 02:42:00,73.1,66.6,29.88,SSW,200,15.0,15.0,80,0.00,CLR,,0.00,WeatherDisplay:10.37,2013-05-29 07:42:00,
2013-05-29 02:47:00,73.0,66.5,29.88,WSW,250,12.7,12.7,80,0.00,CLR,,0.00,WeatherDisplay:10.37,2013-05-29 07:47:00,
2013-05-29 02:52:00,72.8,66.3,29.88,SSW,201,15.0,15.0,80,0.00,CLR,,0.00,WeatherDisplay:10.37,2013-05-29 07:52:00,
2013-05-29 02:57:00,72.5,66.3,29.88,SW,227,18.4,18.4,81,0.00,CLR,,0.00,WeatherDisplay:10.37,2013-05-29 07:57:00,
2013-05-29 03:02:00,72.3,66.1,29.88,SSW,205,10.4,10.4,81,0.00,CLR,,0.00,WeatherDisplay:10.37,2013-05-29 08:02:00,
2013-05-29 03:07:00,72.1,65.9,29.88,WSW,246,12.7,12.7,81,0.00,CLR,,0.00,WeatherDisplay:10.37,2013-05-29 08:07:00,
2013-05-29 03:12:00,71.8,65.7,29.88,West,262,13.8,13.8,81,0.00,CLR,,0.00,WeatherDisplay:10.37,2013-05-29 08:12:00,
2013-05-29 03:17:00,71.5,65.0,29.89,SW,230,15.0,15.0,80,0.00,CLR,,0.00,WeatherDisplay:10.37,2013-05-29 08:17:00,
2013-05-29 03:22:00,71.3,64.8,29.89,SW,223,11.5,11.5,80,0.00,CLR,,0.00,WeatherDisplay:10.37,2013-05-29 08:22:00,
2013-05-29 03:27:00,71.0,64.5,29.88,SW,236,11.5,11.5,80,0.00,CLR,,0.00,WeatherDisplay:10.37,2013-05-29 08:27:00,
2013-05-29 03:32:00,70.7,64.2,29.89,SW,222,9.2,9.2,80,0.00,CLR,,0.00,WeatherDisplay:10.37,2013-05-29 08:32:00,
2013-05-29 03:37:00,70.5,64.0,29.89,SW,225,10.4,10.4,80,0.00,CLR,,0.00,WeatherDisplay:10.37,2013-05-29 08:37:00,
2013-05-29 03:42:00,70.2,64.1,29.89,SSW,213,10.4,10.4,81,0.00,CLR,,0.00,WeatherDisplay:10.37,2013-05-29 08:42:00,
2013-05-29 03:47:00,70.0,63.9,29.89,SSW,211,8.0,8.0,81,0.00,CLR,,0.00,WeatherDisplay:10.37,2013-05-29 08:47:00,
2013-05-29 03:52:00,69.8,64.1,29.89,SW,228,11.5,11.5,82,0.00,CLR,,0.00,WeatherDisplay:10.37,2013-05-29 08:52:00,
2013-05-29 03:57:00,69.5,64.1,29.89,SW,215,10.4,10.4,83,0.00,CLR,,0.00,WeatherDisplay:10.37,2013-05-29 08:57:00,
2013-05-29 04:02:00,69.2,63.8,29.89,SSW,200,15.0,15.0,83,0.00,CLR,,0.00,WeatherDisplay:10.37,2013-05-29 09:02:00,
2013-05-29 04:07:00,68.9,63.9,29.89,SSW,194,15.0,15.0,84,0.00,CLR,,0.00,WeatherDisplay:10.37,2013-05-29 09:07:00,
2013-05-29 04:12:00,68.7,63.7,29.88,SSW,201,12.7,12.7,84,0.00,CLR,,0.00,WeatherDisplay:10.37,2013-05-29 09:12:00,
2013-05-29 04:17:00,68.7,63.3,29.88,SSW,204,11.0,11.0,83,0.00,CLR,,0.00,WeatherDisplay:10.37,2013-05-29 09:17:00,
2013-05-29 04:22:00,68.7,63.3,29.89,SSW,196,12.7,12.7,83,0.00,CLR,,0.00,WeatherDisplay:10.37,2013-05-29 09:22:00,
2013-05-29 04:27:00,68.7,63.0,29.89,SSW,203,11.5,11.5,82,0.00,CLR,,0.00,WeatherDisplay:10.37,2013-05-29 09:27:00,
2013-05-29 04:32:00,68.9,62.8,29.89,SSW,192,15.0,15.0,81,0.00,CLR,,0.00,WeatherDisplay:10.37,2013-05-29 09:32:00,
2013-05-29 04:37:00,69.1,63.0,29.89,SSW,209,13.8,13.8,81,0.00,CLR,,0.00,WeatherDisplay:10.37,2013-05-29 09:37:00,
2013-05-29 04:42:00,69.2,63.1,29.89,SSW,199,11.5,11.5,81,0.00,CLR,,0.00,WeatherDisplay:10.37,2013-05-29 09:42:00,
2013-05-29 04:47:00,69.3,62.9,29.89,SSW,200,11.5,11.5,80,0.00,CLR,,0.00,WeatherDisplay:10.37,2013-05-29 09:47:00,
2013-05-29 04:52:00,69.3,62.9,29.89,South,182,17.3,17.3,80,0.00,CLR,,0.00,WeatherDisplay:10.37,2013-05-29 09:52:00,
2013-05-29 04:57:00,69.5,63.1,29.89,South,178,13.8,13.8,80,0.00,CLR,,0.00,WeatherDisplay:10.37,2013-05-29 09:57:00,
2013-05-29 05:02:00,69.6,63.2,29.89,SSW,193,15.0,15.0,80,0.00,CLR,,0.00,WeatherDisplay:10.37,2013-05-29 10:02:00,
2013-05-29 05:07:00,69.7,63.6,29.90,SSW,208,11.5,11.5,81,0.00,CLR,,0.00,WeatherDisplay:10.37,2013-05-29 10:07:00,
2013-05-29 05:12:00,69.6,63.5,29.90,SW,223,11.5,11.5,81,0.00,CLR,,0.00,WeatherDisplay:10.37,2013-05-29 10:12:00,
2013-05-29 05:17:00,69.7,63.6,29.90,SSW,195,15.0,15.0,81,0.00,CLR,,0.00,WeatherDisplay:10.37,2013-05-29 10:17:00,
2013-05-29 05:22:00,69.9,63.4,29.91,SSW,194,11.5,11.5,80,0.00,CLR,,0.00,WeatherDisplay:10.37,2013-05-29 10:22:00,
2013-05-29 05:27:00,69.9,63.8,29.91,SSW,197,16.1,16.1,81,0.00,CLR,,0.00,WeatherDisplay:10.37,2013-05-29 10:27:00,
2013-05-29 05:32:00,69.9,63.8,29.91,SSW,196,19.6,19.6,81,0.00,CLR,,0.00,WeatherDisplay:10.37,2013-05-29 10:32:00,
2013-05-29 05:37:00,69.9,64.2,29.91,South,175,20.7,20.7,82,0.00,CLR,,0.00,WeatherDisplay:10.37,2013-05-29 10:37:00,
2013-05-29 05:42:00,69.8,64.1,29.91,SSW,205,17.3,17.3,82,0.00,CLR,,0.00,WeatherDisplay:10.37,2013-05-29 10:42:00,
2013-05-29 05:47:00,69.8,64.1,29.91,SSW,194,19.6,19.6,82,0.00,CLR,,0.00,WeatherDisplay:10.37,2013-05-29 10:47:00,
2013-05-29 05:52:00,69.7,64.3,29.91,SSW,192,18.0,18.0,83,0.00,CLR,,0.00,WeatherDisplay:10.37,2013-05-29 10:52:00,
2013-05-29 05:57:00,69.7,64.3,29.91,South,190,16.0,16.0,83,0.00,CLR,,0.00,WeatherDisplay:10.37,2013-05-29 10:57:00,
2013-05-29 06:02:00,69.6,64.2,29.91,SSW,205,17.3,17.3,83,0.00,CLR,,0.00,WeatherDisplay:10.37,2013-05-29 11:02:00,
2013-05-29 06:07:00,69.5,64.1,29.92,SSW,207,11.5,11.5,83,0.00,CLR,,0.00,WeatherDisplay:10.37,2013-05-29 11:07:00,
2013-05-29 06:12:00,69.5,64.1,29.92,South,188,13.8,13.8,83,0.00,CLR,,0.00,WeatherDisplay:10.37,2013-05-29 11:12:00,
2013-05-29 06:17:00,69.6,64.2,29.92,SSW,192,19.6,19.6,83,0.00,CLR,,0.00,WeatherDisplay:10.37,2013-05-29 11:17:00,
2013-05-29 06:22:00,69.8,64.4,29.92,SSW,194,20.0,20.0,83,0.00,CLR,,0.00,WeatherDisplay:10.37,2013-05-29 11:22:00,
2013-05-29 06:27:00,69.9,64.5,29.91,SSW,204,19.6,19.6,83,0.00,CLR,,0.00,WeatherDisplay:10.37,2013-05-29 11:27:00,
2013-05-29 06:32:00,69.9,64.5,29.91,SW,234,17.3,17.3,83,0.00,CLR,,0.00,WeatherDisplay:10.37,2013-05-29 11:32:00,
2013-05-29 06:37:00,69.9,64.5,29.92,South,175,15.0,15.0,83,0.00,CLR,,0.00,WeatherDisplay:10.37,2013-05-29 11:37:00,
2013-05-29 06:42:00,70.1,64.3,29.92,SSW,202,13.8,13.8,82,0.00,CLR,,0.00,WeatherDisplay:10.37,2013-05-29 11:42:00,
2013-05-29 06:47:00,70.2,64.4,29.92,SSW,202,13.8,13.8,82,0.00,CLR,,0.00,WeatherDisplay:10.37,2013-05-29 11:47:00,
2013-05-29 06:52:00,70.3,64.5,29.92,SSW,196,19.6,19.6,82,0.00,CLR,,0.00,WeatherDisplay:10.37,2013-05-29 11:52:00,
2013-05-29 06:57:00,70.5,64.4,29.92,SSW,192,15.0,15.0,81,0.00,CLR,,0.00,WeatherDisplay:10.37,2013-05-29 11:57:00,
2013-05-29 07:02:00,70.7,64.6,29.92,South,186,12.0,12.0,81,0.00,CLR,,0.00,WeatherDisplay:10.37,2013-05-29 12:02:00,
2013-05-29 07:07:00,70.8,64.7,29.91,SSE,167,13.0,13.0,81,0.00,CLR,,0.00,WeatherDisplay:10.37,2013-05-29 12:07:00,
2013-05-29 07:12:00,70.8,64.7,29.91,SSE,157,18.4,18.4,81,0.00,CLR,,0.00,WeatherDisplay:10.37,2013-05-29 12:12:00,
2013-05-29 07:17:00,70.8,64.7,29.91,SSW,196,13.0,13.0,81,0.00,CLR,,0.00,WeatherDisplay:10.37,2013-05-29 12:17:00,
2013-05-29 07:22:00,70.9,64.4,29.91,SSE,167,21.9,21.9,80,0.00,CLR,,0.00,WeatherDisplay:10.37,2013-05-29 12:22:00,
2013-05-29 07:27:00,71.1,64.3,29.91,SSW,203,21.9,21.9,79,0.00,CLR,,0.00,WeatherDisplay:10.37,2013-05-29 12:27:00,
2013-05-29 07:32:00,71.2,64.4,29.91,SSE,149,15.0,15.0,79,0.00,CLR,,0.00,WeatherDisplay:10.37,2013-05-29 12:32:00,
2013-05-29 07:37:00,71.3,64.1,29.91,South,188,19.0,19.0,78,0.00,CLR,,0.00,WeatherDisplay:10.37,2013-05-29 12:37:00,
2013-05-29 07:42:00,71.4,63.8,29.91,SSW,192,13.8,13.8,77,0.00,CLR,,0.00,WeatherDisplay:10.37,2013-05-29 12:42:00,
2013-05-29 07:47:00,71.5,64.3,29.91,South,171,11.5,11.6,78,0.00,CLR,,0.00,WeatherDisplay:10.37,2013-05-29 12:47:00,
2013-05-29 07:52:00,71.5,63.9,29.91,SSW,194,17.3,17.3,77,0.00,CLR,,0.00,WeatherDisplay:10.37,2013-05-29 12:52:00,
2013-05-29 07:57:00,71.5,64.3,29.91,South,180,19.6,19.6,78,0.00,CLR,,0.00,WeatherDisplay:10.37,2013-05-29 12:57:00,
2013-05-29 08:02:00,71.6,64.4,29.91,SSW,211,19.6,19.6,78,0.00,CLR,,0.00,WeatherDisplay:10.37,2013-05-29 13:02:00,
2013-05-29 08:07:00,71.9,64.3,29.91,SSW,202,16.1,16.1,77,0.00,CLR,,0.00,WeatherDisplay:10.37,2013-05-29 13:07:00,
2013-05-29 08:12:00,72.2,64.2,29.90,South,189,16.1,16.1,76,0.00,CLR,,0.00,WeatherDisplay:10.37,2013-05-29 13:12:00,
2013-05-29 08:17:00,72.3,63.5,29.90,SW,219,26.5,26.5,74,0.00,CLR,,0.00,WeatherDisplay:10.37,2013-05-29 13:17:00,
2013-05-29 08:22:00,72.4,63.6,29.91,SSW,209,26.5,26.5,74,0.00,CLR,,0.00,WeatherDisplay:10.37,2013-05-29 13:22:00,
2013-05-29 08:27:00,72.4,63.6,29.92,SSW,196,24.0,24.0,74,0.00,CLR,,0.00,WeatherDisplay:10.37,2013-05-29 13:27:00,
2013-05-29 08:32:00,72.4,63.6,29.92,SSW,209,20.0,20.0,74,0.00,CLR,,0.00,WeatherDisplay:10.37,2013-05-29 13:32:00,
2013-05-29 08:37:00,72.4,63.6,29.92,SSW,196,25.3,25.3,74,0.00,CLR,,0.00,WeatherDisplay:10.37,2013-05-29 13:37:00,
2013-05-29 08:42:00,72.6,63.8,29.92,SW,214,16.1,16.1,74,0.00,CLR,,0.00,WeatherDisplay:10.37,2013-05-29 13:42:00,
2013-05-29 08:47:00,72.8,64.0,29.92,SSW,202,21.0,21.0,74,0.00,CLR,,0.00,WeatherDisplay:10.37,2013-05-29 13:47:00,
2013-05-29 08:52:00,73.0,63.8,29.93,SSW,200,19.6,19.6,73,0.00,CLR,,0.00,WeatherDisplay:10.37,2013-05-29 13:52:00,
2013-05-29 08:57:00,73.1,63.9,29.93,South,187,24.2,24.2,73,0.00,CLR,,0.00,WeatherDisplay:10.37,2013-05-29 13:57:00,
2013-05-29 09:02:00,73.1,63.9,29.93,SSW,198,23.0,23.0,73,0.00,CLR,,0.00,WeatherDisplay:10.37,2013-05-29 14:02:00,
2013-05-29 09:07:00,73.2,64.4,29.93,South,171,25.3,25.3,74,0.00,CLR,,0.00,WeatherDisplay:10.37,2013-05-29 14:07:00,
2013-05-29 09:12:00,73.6,64.8,29.93,SSW,196,26.5,26.5,74,0.00,CLR,,0.00,WeatherDisplay:10.37,2013-05-29 14:12:00,
2013-05-29 09:17:00,73.8,65.0,29.93,SSW,200,19.6,19.6,74,0.00,CLR,,0.00,WeatherDisplay:10.37,2013-05-29 14:17:00,
2013-05-29 09:22:00,74.3,65.5,29.93,South,175,21.0,21.0,74,0.00,CLR,,0.00,WeatherDisplay:10.37,2013-05-29 14:22:00,
2013-05-29 09:27:00,74.9,65.7,29.93,SSW,213,21.9,21.9,73,0.00,CLR,,0.00,WeatherDisplay:10.37,2013-05-29 14:27:00,
2013-05-29 09:32:00,75.2,65.6,29.93,SSE,164,21.9,21.9,72,0.00,CLR,,0.00,WeatherDisplay:10.37,2013-05-29 14:32:00,
2013-05-29 09:37:00,75.6,65.9,29.93,South,175,21.9,21.9,72,0.00,CLR,,0.00,WeatherDisplay:10.37,2013-05-29 14:37:00,
2013-05-29 09:43:00,75.6,65.5,29.93,SSW,209,31.1,31.1,71,0.00,CLR,,0.00,WeatherDisplay:10.37,2013-05-29 14:43:00,
2013-05-29 09:48:00,75.7,65.6,29.92,SSW,206,32.2,32.2,71,0.00,CLR,,0.00,WeatherDisplay:10.37,2013-05-29 14:48:00,
2013-05-29 09:53:00,75.9,65.8,29.92,SSW,207,24.2,24.2,71,0.00,CLR,,0.00,WeatherDisplay:10.37,2013-05-29 14:53:00,
2013-05-29 09:58:00,76.2,66.1,29.92,SW,217,19.6,19.6,71,0.00,CLR,,0.00,WeatherDisplay:10.37,2013-05-29 14:58:00,
2013-05-29 10:03:00,76.2,66.1,29.92,SSW,196,26.5,26.5,71,0.00,CLR,,0.00,WeatherDisplay:10.37,2013-05-29 15:03:00,
2013-05-29 10:08:00,76.7,66.6,29.92,SW,223,26.0,26.0,71,0.00,CLR,,0.00,WeatherDisplay:10.37,2013-05-29 15:08:00,
2013-05-29 10:13:00,76.9,66.8,29.92,SSW,200,21.9,21.9,71,0.00,CLR,,0.00,WeatherDisplay:10.37,2013-05-29 15:13:00,
2013-05-29 10:18:00,77.3,66.7,29.92,West,273,23.0,23.0,70,0.00,CLR,,0.00,WeatherDisplay:10.37,2013-05-29 15:18:00,
2013-05-29 10:23:00,78.0,67.4,29.93,South,185,19.6,19.6,70,0.00,CLR,,0.00,WeatherDisplay:10.37,2013-05-29 15:23:00,
2013-05-29 10:28:00,78.2,67.6,29.93,South,190,23.0,23.0,70,0.00,CLR,,0.00,WeatherDisplay:10.37,2013-05-29 15:28:00,
2013-05-29 10:33:00,78.6,67.6,29.93,SSE,150,24.2,24.2,69,0.00,CLR,,0.00,WeatherDisplay:10.37,2013-05-29 15:33:00,
2013-05-29 10:38:00,78.9,67.9,29.93,SW,225,26.5,26.5,69,0.00,CLR,,0.00,WeatherDisplay:10.37,2013-05-29 15:38:00,
2013-05-29 10:43:00,79.1,68.1,29.93,WSW,242,11.5,11.5,69,0.00,CLR,,0.00,WeatherDisplay:10.37,2013-05-29 15:43:00,
2013-05-29 10:48:00,79.6,68.1,29.94,SSW,212,21.9,21.9,68,0.00,CLR,,0.00,WeatherDisplay:10.37,2013-05-29 15:48:00,
2013-05-29 10:53:00,79.6,67.7,29.93,West,272,18.4,18.4,67,0.00,CLR,,0.00,WeatherDisplay:10.37,2013-05-29 15:53:00,
2013-05-29 10:58:00,80.0,68.5,29.94,SW,231,26.5,26.5,68,0.00,CLR,,0.00,WeatherDisplay:10.37,2013-05-29 15:58:00,
2013-05-29 11:03:00,79.9,68.0,29.94,SW,221,18.4,18.4,67,0.00,CLR,,0.00,WeatherDisplay:10.37,2013-05-29 16:03:00,
2013-05-29 11:08:00,79.8,67.9,29.94,SSW,207,28.8,28.8,67,0.00,CLR,,0.00,WeatherDisplay:10.37,2013-05-29 16:08:00,
2013-05-29 11:13:00,79.5,68.0,29.93,West,265,27.6,27.6,68,0.00,CLR,,0.00,WeatherDisplay:10.37,2013-05-29 16:13:00,
2013-05-29 11:18:00,79.7,68.2,29.94,South,179,23.0,23.0,68,0.00,CLR,,0.00,WeatherDisplay:10.37,2013-05-29 16:18:00,
2013-05-29 11:23:00,80.0,68.1,29.94,SW,231,24.2,24.2,67,0.00,CLR,,0.00,WeatherDisplay:10.37,2013-05-29 16:23:00,
2013-05-29 11:28:00,80.0,68.1,29.93,SW,235,26.5,26.5,67,0.00,CLR,,0.00,WeatherDisplay:10.37,2013-05-29 16:28:00,
2013-05-29 11:33:00,80.0,68.5,29.94,WSW,248,25.3,25.3,68,0.00,CLR,,0.00,WeatherDisplay:10.37,2013-05-29 16:33:00,
2013-05-29 11:38:00,80.6,68.2,29.93,WSW,246,27.6,27.6,66,0.00,CLR,,0.00,WeatherDisplay:10.37,2013-05-29 16:38:00,
2013-05-29 11:43:00,80.7,68.7,29.93,WSW,246,11.5,11.5,67,0.00,CLR,,0.00,WeatherDisplay:10.37,2013-05-29 16:43:00,
2013-05-29 11:48:00,81.1,68.2,29.93,SW,219,26.5,26.5,65,0.00,CLR,,0.00,WeatherDisplay:10.37,2013-05-29 16:48:00,
2013-05-29 11:53:00,80.5,68.1,29.93,SSW,204,19.6,19.6,66,0.00,CLR,,0.00,WeatherDisplay:10.37,2013-05-29 16:53:00,
2013-05-29 11:58:00,80.7,68.7,29.93,South,175,15.0,15.0,67,0.00,CLR,,0.00,WeatherDisplay:10.37,2013-05-29 16:58:00,
2013-05-29 12:03:00,81.3,68.9,29.93,WSW,241,15.0,15.0,66,0.00,CLR,,0.00,WeatherDisplay:10.37,2013-05-29 17:03:00,
2013-05-29 12:08:00,81.2,67.9,29.93,WSW,244,24.2,24.2,64,0.00,CLR,,0.00,WeatherDisplay:10.37,2013-05-29 17:08:00,
2013-05-29 12:13:00,81.2,68.8,29.93,SW,224,19.6,19.6,66,0.00,CLR,,0.00,WeatherDisplay:10.37,2013-05-29 17:13:00,
2013-05-29 12:18:00,81.8,68.4,29.93,ESE,113,28.8,28.8,64,0.00,CLR,,0.00,WeatherDisplay:10.37,2013-05-29 17:18:00,
2013-05-29 12:23:00,82.0,68.2,29.93,SSW,210,25.0,25.0,63,0.00,CLR,,0.00,WeatherDisplay:10.37,2013-05-29 17:23:00,
2013-05-29 12:28:00,81.2,67.4,29.93,SSW,202,24.2,24.2,63,0.00,CLR,,0.00,WeatherDisplay:10.37,2013-05-29 17:28:00,
2013-05-29 12:33:00,81.3,67.0,29.93,SSW,204,18.4,18.4,62,0.00,CLR,,0.00,WeatherDisplay:10.37,2013-05-29 17:33:00,
2013-05-29 12:38:00,81.8,67.5,29.93,SW,215,24.0,24.0,62,0.00,CLR,,0.00,WeatherDisplay:10.37,2013-05-29 17:38:00,
2013-05-29 12:43:00,81.8,67.5,29.93,SSW,200,20.7,20.7,62,0.00,CLR,,0.00,WeatherDisplay:10.37,2013-05-29 17:43:00,
2013-05-29 12:48:00,82.3,68.0,29.93,SSW,202,20.7,20.7,62,0.00,CLR,,0.00,WeatherDisplay:10.37,2013-05-29 17:48:00,
2013-05-29 12:53:00,82.3,68.0,29.93,SSW,197,21.9,21.9,62,0.00,CLR,,0.00,WeatherDisplay:10.37,2013-05-29 17:53:00,
2013-05-29 12:58:00,82.7,67.9,29.93,WNW,288,20.0,20.0,61,0.00,CLR,,0.00,WeatherDisplay:10.37,2013-05-29 17:58:00,
2013-05-29 13:03:00,83.0,67.7,29.92,South,177,20.7,20.7,60,0.00,CLR,,0.00,WeatherDisplay:10.37,2013-05-29 18:03:00,
2013-05-29 13:08:00,83.2,67.4,29.93,SSW,200,24.2,24.2,59,0.00,CLR,,0.00,WeatherDisplay:10.37,2013-05-29 18:08:00,
2013-05-29 13:13:00,82.8,67.0,29.92,SSW,211,24.2,24.2,59,0.00,CLR,,0.00,WeatherDisplay:10.37,2013-05-29 18:13:00,
2013-05-29 13:18:00,83.0,67.7,29.92,SSW,192,16.1,16.1,60,0.00,CLR,,0.00,WeatherDisplay:10.37,2013-05-29 18:18:00,
2013-05-29 13:23:00,82.9,67.6,29.92,SSW,193,19.6,19.6,60,0.00,CLR,,0.00,WeatherDisplay:10.37,2013-05-29 18:23:00,
2013-05-29 13:28:00,82.7,67.4,29.92,SW,226,21.9,21.9,60,0.00,CLR,,0.00,WeatherDisplay:10.37,2013-05-29 18:28:00,
2013-05-29 13:33:00,82.2,67.4,29.92,SSW,211,21.9,21.9,61,0.00,CLR,,0.00,WeatherDisplay:10.37,2013-05-29 18:33:00,
2013-05-29 13:38:00,82.2,67.4,29.92,SW,223,11.5,11.5,61,0.00,CLR,,0.00,WeatherDisplay:10.37,2013-05-29 18:38:00,
2013-05-29 13:43:00,82.2,67.4,29.92,SSW,206,25.3,25.3,61,0.00,CLR,,0.00,WeatherDisplay:10.37,2013-05-29 18:43:00,
2013-05-29 13:48:00,82.5,67.7,29.93,SW,226,13.8,13.8,61,0.00,CLR,,0.00,WeatherDisplay:10.37,2013-05-29 18:48:00,
2013-05-29 13:53:00,83.0,66.2,29.92,South,186,26.5,26.5,57,0.00,CLR,,0.00,WeatherDisplay:10.37,2013-05-29 18:53:00,
2013-05-29 13:58:00,83.3,68.0,29.92,SE,139,16.1,16.1,60,0.00,CLR,,0.00,WeatherDisplay:10.37,2013-05-29 18:58:00,
2013-05-29 14:03:00,84.0,67.6,29.92,SSW,198,26.5,26.5,58,0.00,CLR,,0.00,WeatherDisplay:10.37,2013-05-29 19:03:00,
2013-05-29 14:08:00,83.3,66.5,29.92,SSW,200,28.8,28.8,57,0.00,CLR,,0.00,WeatherDisplay:10.37,2013-05-29 19:08:00,
2013-05-29 14:13:00,83.4,67.6,29.92,SSE,157,15.0,15.0,59,0.00,CLR,,0.00,WeatherDisplay:10.37,2013-05-29 19:13:00,
2013-05-29 14:18:00,84.1,67.7,29.92,South,184,18.4,18.4,58,0.00,CLR,,0.00,WeatherDisplay:10.37,2013-05-29 19:18:00,
2013-05-29 14:23:00,84.4,67.5,29.91,SW,232,19.6,19.6,57,0.00,CLR,,0.00,WeatherDisplay:10.37,2013-05-29 19:23:00,
2013-05-29 14:28:00,83.7,66.8,29.92,SW,221,17.3,17.3,57,0.00,CLR,,0.00,WeatherDisplay:10.37,2013-05-29 19:28:00,
2013-05-29 14:33:00,83.2,66.9,29.91,SSW,201,23.0,23.0,58,0.00,CLR,,0.00,WeatherDisplay:10.37,2013-05-29 19:33:00,
2013-05-29 14:38:00,83.1,66.8,29.91,SSW,205,18.0,25.0,58,0.00,CLR,,0.00,WeatherDisplay:10.37,2013-05-29 19:38:00,
2013-05-29 14:43:00,83.5,67.2,29.91,SSW,212,24.2,24.2,58,0.00,CLR,,0.00,WeatherDisplay:10.37,2013-05-29 19:43:00,
2013-05-29 14:48:00,83.9,67.5,29.91,SSW,202,25.0,25.0,58,0.00,CLR,,0.00,WeatherDisplay:10.37,2013-05-29 19:48:00,
2013-05-29 14:53:00,83.6,66.8,29.91,SSW,205,24.2,24.2,57,0.00,CLR,,0.00,WeatherDisplay:10.37,2013-05-29 19:53:00,
2013-05-29 14:58:00,83.5,66.7,29.91,SW,230,19.6,19.6,57,0.00,CLR,,0.00,WeatherDisplay:10.37,2013-05-29 19:58:00,
2013-05-29 15:03:00,83.7,66.3,29.91,SW,227,25.3,25.3,56,0.00,CLR,,0.00,WeatherDisplay:10.37,2013-05-29 20:03:00,
2013-05-29 15:08:00,83.7,66.8,29.91,South,190,29.9,29.9,57,0.00,CLR,,0.00,WeatherDisplay:10.37,2013-05-29 20:08:00,
2013-05-29 15:13:00,83.8,67.4,29.90,SE,134,17.3,17.3,58,0.00,CLR,,0.00,WeatherDisplay:10.37,2013-05-29 20:13:00,
2013-05-29 15:18:00,83.9,67.5,29.90,WSW,246,19.6,19.6,58,0.00,CLR,,0.00,WeatherDisplay:10.37,2013-05-29 20:18:00,
2013-05-29 15:23:00,84.2,67.8,29.90,SSW,194,19.6,19.6,58,0.00,CLR,,0.00,WeatherDisplay:10.37,2013-05-29 20:23:00,
2013-05-29 15:28:00,84.1,67.2,29.90,South,171,25.3,25.3,57,0.00,CLR,,0.00,WeatherDisplay:10.37,2013-05-29 20:28:00,
2013-05-29 15:33:00,84.7,67.8,29.90,SSW,202,20.7,20.7,57,0.00,CLR,,0.00,WeatherDisplay:10.37,2013-05-29 20:33:00,
2013-05-29 15:38:00,85.1,68.2,29.90,South,169,19.6,19.6,57,0.00,CLR,,0.00,WeatherDisplay:10.37,2013-05-29 20:38:00,
2013-05-29 15:43:00,85.5,68.0,29.90,SSW,199,13.8,13.8,56,0.00,CLR,,0.00,WeatherDisplay:10.37,2013-05-29 20:43:00,
2013-05-29 15:48:00,85.6,67.0,29.90,SE,145,28.8,28.8,54,0.00,CLR,,0.00,WeatherDisplay:10.37,2013-05-29 20:48:00,
2013-05-29 15:53:00,85.5,68.0,29.89,SSW,209,27.0,27.0,56,0.00,CLR,,0.00,WeatherDisplay:10.37,2013-05-29 20:53:00,
2013-05-29 15:58:00,84.3,67.4,29.89,South,180,26.5,26.5,57,0.00,CLR,,0.00,WeatherDisplay:10.37,2013-05-29 20:58:00,
2013-05-29 16:03:00,84.4,67.5,29.90,South,186,18.4,18.4,57,0.00,CLR,,0.00,WeatherDisplay:10.37,2013-05-29 21:03:00,
2013-05-29 16:08:00,84.6,67.7,29.89,South,171,17.3,17.3,57,0.00,CLR,,0.00,WeatherDisplay:10.37,2013-05-29 21:08:00,
2013-05-29 16:13:00,84.4,67.0,29.89,SSW,199,21.0,21.0,56,0.00,CLR,,0.00,WeatherDisplay:10.37,2013-05-29 21:13:00,
2013-05-29 16:18:00,84.3,65.8,29.89,SSW,200,27.6,27.6,54,0.00,CLR,,0.00,WeatherDisplay:10.37,2013-05-29 21:18:00,
2013-05-29 16:23:00,84.4,65.9,29.89,SSW,198,25.3,25.3,54,0.00,CLR,,0.00,WeatherDisplay:10.37,2013-05-29 21:23:00,
2013-05-29 16:28:00,84.3,65.8,29.88,South,186,26.5,26.5,54,0.00,CLR,,0.00,WeatherDisplay:10.37,2013-05-29 21:28:00,
2013-05-29 16:33:00,84.4,65.9,29.89,South,175,25.3,25.3,54,0.00,CLR,,0.00,WeatherDisplay:10.37,2013-05-29 21:33:00,
2013-05-29 16:38:00,84.2,65.2,29.88,SSW,205,24.0,24.0,53,0.00,CLR,,0.00,WeatherDisplay:10.37,2013-05-29 21:38:00,
2013-05-29 16:43:00,84.2,65.8,29.89,South,169,24.0,24.0,54,0.00,CLR,,0.00,WeatherDisplay:10.37,2013-05-29 21:43:00,
2013-05-29 16:48:00,84.5,65.5,29.89,South,178,19.6,19.6,53,0.00,CLR,,0.00,WeatherDisplay:10.37,2013-05-29 21:48:00,
2013-05-29 16:53:00,84.6,65.6,29.89,SSW,201,17.0,28.0,53,0.00,CLR,,0.00,WeatherDisplay:10.37,2013-05-29 21:53:00,
2013-05-29 16:58:00,84.3,64.8,29.88,SSW,209,27.6,27.6,52,0.00,CLR,,0.00,WeatherDisplay:10.37,2013-05-29 21:58:00,
2013-05-29 17:03:00,84.4,65.9,29.88,SSE,164,19.6,19.6,54,0.00,CLR,,0.00,WeatherDisplay:10.37,2013-05-29 22:03:00,
2013-05-29 17:08:00,84.2,65.8,29.88,SSE,155,26.5,26.5,54,0.00,CLR,,0.00,WeatherDisplay:10.37,2013-05-29 22:08:00,
2013-05-29 17:13:00,84.2,66.3,29.89,SSE,156,16.1,16.1,55,0.00,CLR,,0.00,WeatherDisplay:10.37,2013-05-29 22:13:00,
2013-05-29 17:18:00,84.2,65.8,29.89,South,181,26.5,26.5,54,0.00,CLR,,0.00,WeatherDisplay:10.37,2013-05-29 22:18:00,
2013-05-29 17:23:00,84.0,65.6,29.89,SE,144,23.0,23.0,54,0.00,CLR,,0.00,WeatherDisplay:10.37,2013-05-29 22:23:00,
2013-05-29 17:28:00,83.9,65.5,29.88,South,184,17.3,17.3,54,0.00,CLR,,0.00,WeatherDisplay:10.37,2013-05-29 22:28:00,
2013-05-29 17:33:00,83.9,66.0,29.88,South,175,18.4,18.4,55,0.00,CLR,,0.00,WeatherDisplay:10.37,2013-05-29 22:33:00,
2013-05-29 17:38:00,83.8,65.4,29.88,SSE,157,24.2,24.2,54,0.00,CLR,,0.00,WeatherDisplay:10.37,2013-05-29 22:38:00,
2013-05-29 17:43:00,83.6,64.7,29.88,SSE,148,15.0,15.0,53,0.00,CLR,,0.00,WeatherDisplay:10.37,2013-05-29 22:43:00,
2013-05-29 17:48:00,83.6,64.7,29.88,SSE,164,20.7,20.7,53,0.00,CLR,,0.00,WeatherDisplay:10.37,2013-05-29 22:48:00,
2013-05-29 17:53:00,83.6,64.7,29.88,SSE,160,19.6,19.6,53,0.00,CLR,,0.00,WeatherDisplay:10.37,2013-05-29 22:53:00,
2013-05-29 17:58:00,83.5,64.6,29.88,SSE,157,24.0,24.0,53,0.00,CLR,,0.00,WeatherDisplay:10.37,2013-05-29 22:58:00,
2013-05-29 18:03:00,83.4,63.9,29.88,SSW,200,21.9,21.9,52,0.00,CLR,,0.00,WeatherDisplay:10.37,2013-05-29 23:03:00,
2013-05-29 18:08:00,83.4,63.4,29.88,South,188,20.7,20.7,51,0.00,CLR,,0.00,WeatherDisplay:10.37,2013-05-29 23:08:00,
2013-05-29 18:13:00,83.5,62.9,29.87,SSE,168,31.1,31.1,50,0.00,CLR,,0.00,WeatherDisplay:10.37,2013-05-29 23:13:00,
2013-05-29 18:18:00,83.5,62.9,29.87,South,173,23.0,23.0,50,0.00,CLR,,0.00,WeatherDisplay:10.37,2013-05-29 23:18:00,
2013-05-29 18:23:00,83.4,62.8,29.87,SSE,150,17.3,17.3,50,0.00,CLR,,0.00,WeatherDisplay:10.37,2013-05-29 23:23:00,
2013-05-29 18:29:00,83.3,62.1,29.87,South,183,19.6,19.6,49,0.00,CLR,,0.00,WeatherDisplay:10.37,2013-05-29 23:29:00,
2013-05-29 18:33:00,83.3,61.6,29.87,SSW,205,20.7,20.7,48,0.00,CLR,,0.00,WeatherDisplay:10.37,2013-05-29 23:33:00,
2013-05-29 18:39:00,83.2,61.5,29.87,SE,142,19.6,19.6,48,0.00,CLR,,0.00,WeatherDisplay:10.37,2013-05-29 23:39:00,
2013-05-29 18:44:00,83.1,61.4,29.87,South,186,15.0,15.0,48,0.00,CLR,,0.00,WeatherDisplay:10.37,2013-05-29 23:44:00,
2013-05-29 18:49:00,83.2,61.5,29.87,SSE,153,20.7,20.7,48,0.00,CLR,,0.00,WeatherDisplay:10.37,2013-05-29 23:49:00,
2013-05-29 18:54:00,83.0,61.3,29.87,South,178,24.2,24.2,48,0.00,CLR,,0.00,WeatherDisplay:10.37,2013-05-29 23:54:00,
2013-05-29 18:59:00,82.9,61.2,29.87,SSE,161,15.0,15.0,48,0.00,CLR,,0.00,WeatherDisplay:10.37,2013-05-29 23:59:00,
2013-05-29 19:04:00,82.8,61.1,29.87,South,191,18.4,18.4,48,0.00,CLR,,0.00,WeatherDisplay:10.37,2013-05-30 00:04:00,
2013-05-29 19:09:00,82.7,61.0,29.88,South,181,13.0,18.0,48,0.00,CLR,,0.00,WeatherDisplay:10.37,2013-05-30 00:09:00,
2013-05-29 19:14:00,82.5,61.4,29.88,SE,141,15.0,15.0,49,0.00,CLR,,0.00,WeatherDisplay:10.37,2013-05-30 00:14:00,
2013-05-29 19:19:00,82.4,61.9,29.88,SSW,195,15.0,15.0,50,0.00,CLR,,0.00,WeatherDisplay:10.37,2013-05-30 00:19:00,
2013-05-29 19:24:00,82.2,61.7,29.88,SE,137,23.0,23.0,50,0.00,CLR,,0.00,WeatherDisplay:10.37,2013-05-30 00:24:00,
2013-05-29 19:29:00,82.0,62.1,29.88,South,188,13.8,13.8,51,0.00,CLR,,0.00,WeatherDisplay:10.37,2013-05-30 00:29:00,
2013-05-29 19:34:00,81.8,61.3,29.88,SSE,166,11.5,11.5,50,0.00,CLR,,0.00,WeatherDisplay:10.37,2013-05-30 00:34:00,
2013-05-29 19:39:00,81.7,61.8,29.87,SSE,156,12.7,12.7,51,0.00,CLR,,0.00,WeatherDisplay:10.37,2013-05-30 00:39:00,
2013-05-29 19:44:00,81.5,61.6,29.87,SSW,197,13.8,13.8,51,0.00,CLR,,0.00,WeatherDisplay:10.37,2013-05-30 00:44:00,
2013-05-29 19:49:00,81.3,61.4,29.87,SSE,163,16.0,16.0,51,0.00,CLR,,0.00,WeatherDisplay:10.37,2013-05-30 00:49:00,
2013-05-29 19:54:00,81.0,61.7,29.87,South,182,11.5,11.5,52,0.00,CLR,,0.00,WeatherDisplay:10.37,2013-05-30 00:54:00,
2013-05-29 19:59:00,80.7,61.4,29.87,South,171,11.5,11.5,52,0.00,CLR,,0.00,WeatherDisplay:10.37,2013-05-30 00:59:00,
2013-05-29 20:04:00,80.4,61.7,29.88,SSW,193,13.8,13.8,53,0.00,CLR,,0.00,WeatherDisplay:10.37,2013-05-30 01:04:00,
2013-05-29 20:09:00,80.1,62.0,29.88,SSE,168,11.5,11.5,54,0.00,CLR,,0.00,WeatherDisplay:10.37,2013-05-30 01:09:00,
2013-05-29 20:14:00,79.8,61.7,29.88,South,171,6.0,13.0,54,0.00,CLR,,0.00,WeatherDisplay:10.37,2013-05-30 01:14:00,
2013-05-29 20:19:00,79.5,61.9,29.88,SSE,161,9.2,9.2,55,0.00,CLR,,0.00,WeatherDisplay:10.37,2013-05-30 01:19:00,
2013-05-29 20:24:00,79.3,61.7,29.88,South,184,11.5,11.5,55,0.00,CLR,,0.00,WeatherDisplay:10.37,2013-05-30 01:24:00,
2013-05-29 20:29:00,79.1,62.1,29.88,SSE,158,11.5,11.5,56,0.00,CLR,,0.00,WeatherDisplay:10.37,2013-05-30 01:29:00,
2013-05-29 20:34:00,78.7,61.7,29.88,SSE,153,9.2,9.2,56,0.00,CLR,,0.00,WeatherDisplay:10.37,2013-05-30 01:34:00,
2013-05-29 20:39:00,78.4,61.9,29.88,SSE,153,11.5,11.5,57,0.00,CLR,,0.00,WeatherDisplay:10.37,2013-05-30 01:39:00,
2013-05-29 20:44:00,78.2,61.7,29.88,SSE,154,9.2,9.2,57,0.00,CLR,,0.00,WeatherDisplay:10.37,2013-05-30 01:44:00,
2013-05-29 20:49:00,78.0,61.5,29.88,SSE,158,10.4,10.4,57,0.00,CLR,,0.00,WeatherDisplay:10.37,2013-05-30 01:49:00,
2013-05-29 20:54:00,77.9,61.9,29.89,SSE,166,10.4,10.4,58,0.00,CLR,,0.00,WeatherDisplay:10.37,2013-05-30 01:54:00,
2013-05-29 20:59:00,77.7,61.7,29.90,SSE,159,9.2,9.2,58,0.00,CLR,,0.00,WeatherDisplay:10.37,2013-05-30 01:59:00,
2013-05-29 21:04:00,77.5,61.6,29.88,SSE,147,11.0,11.0,58,0.00,CLR,,0.00,WeatherDisplay:10.37,2013-05-30 02:04:00,
2013-05-29 21:09:00,77.3,61.9,29.88,SSE,150,10.4,10.4,59,0.00,CLR,,0.00,WeatherDisplay:10.37,2013-05-30 02:09:00,
2013-05-29 21:14:00,77.1,61.7,29.89,SSE,147,10.4,10.4,59,0.00,CLR,,0.00,WeatherDisplay:10.37,2013-05-30 02:14:00,
2013-05-29 21:19:00,77.0,61.6,29.89,SE,139,11.5,11.5,59,0.00,CLR,,0.00,WeatherDisplay:10.37,2013-05-30 02:19:00,
2013-05-29 21:24:00,76.8,61.9,29.88,SE,145,8.0,12.0,60,0.00,CLR,,0.00,WeatherDisplay:10.37,2013-05-30 02:24:00,
2013-05-29 21:29:00,76.6,61.7,29.88,SE,134,11.5,11.5,60,0.00,CLR,,0.00,WeatherDisplay:10.37,2013-05-30 02:29:00,
2013-05-29 21:34:00,76.5,62.0,29.88,SE,146,12.0,12.0,61,0.00,CLR,,0.00,WeatherDisplay:10.37,2013-05-30 02:34:00,
2013-05-29 21:39:00,76.4,62.0,29.88,SSE,154,12.7,12.7,61,0.00,CLR,,0.00,WeatherDisplay:10.37,2013-05-30 02:39:00,
2013-05-29 21:44:00,76.4,62.4,29.88,SSE,166,10.4,10.4,62,0.00,CLR,,0.00,WeatherDisplay:10.37,2013-05-30 02:44:00,
2013-05-29 21:49:00,76.4,62.4,29.88,SSE,165,13.8,13.8,62,0.00,CLR,,0.00,WeatherDisplay:10.37,2013-05-30 02:49:00,
2013-05-29 21:54:00,76.4,62.4,29.89,South,169,11.5,11.5,62,0.00,CLR,,0.00,WeatherDisplay:10.37,2013-05-30 02:54:00,
2013-05-29 21:59:00,76.5,62.5,29.89,SSE,150,16.1,16.1,62,0.00,CLR,,0.00,WeatherDisplay:10.37,2013-05-30 02:59:00,
2013-05-29 22:04:00,76.7,62.7,29.89,SSE,162,8.1,8.1,62,0.00,CLR,,0.00,WeatherDisplay:10.37,2013-05-30 03:04:00,
2013-05-29 22:09:00,76.7,63.2,29.90,SSE,167,11.5,11.5,63,0.00,CLR,,0.00,WeatherDisplay:10.37,2013-05-30 03:09:00,
2013-05-29 22:14:00,76.9,63.3,29.90,South,176,12.7,12.7,63,0.00,CLR,,0.00,WeatherDisplay:10.37,2013-05-30 03:14:00,
2013-05-29 22:19:00,76.9,63.3,29.91,SSE,156,11.0,11.0,63,0.00,CLR,,0.00,WeatherDisplay:10.37,2013-05-30 03:19:00,
2013-05-29 22:24:00,76.7,63.2,29.91,SSE,161,10.4,10.4,63,0.00,CLR,,0.00,WeatherDisplay:10.37,2013-05-30 03:24:00,
2013-05-29 22:29:00,76.7,63.6,29.91,SSE,150,11.5,11.5,64,0.00,CLR,,0.00,WeatherDisplay:10.37,2013-05-30 03:29:00,
2013-05-29 22:34:00,76.6,63.5,29.91,SSE,157,12.7,12.7,64,0.00,CLR,,0.00,WeatherDisplay:10.37,2013-05-30 03:34:00,
2013-05-29 22:39:00,76.5,63.4,29.91,SSE,159,8.0,14.0,64,0.00,CLR,,0.00,WeatherDisplay:10.37,2013-05-30 03:39:00,
2013-05-29 22:44:00,76.4,63.8,29.91,South,169,6.9,6.9,65,0.00,CLR,,0.00,WeatherDisplay:10.37,2013-05-30 03:44:00,
2013-05-29 22:49:00,76.3,63.7,29.91,SSE,159,11.5,11.5,65,0.00,CLR,,0.00,WeatherDisplay:10.37,2013-05-30 03:49:00,
2013-05-29 22:54:00,76.2,63.6,29.91,SSE,156,11.5,11.5,65,0.00,CLR,,0.00,WeatherDisplay:10.37,2013-05-30 03:54:00,
2013-05-29 22:59:00,76.2,64.0,29.92,South,169,11.5,11.5,66,0.00,CLR,,0.00,WeatherDisplay:10.37,2013-05-30 03:59:00,
2013-05-29 23:01:00,76.2,64.0,29.92,South,181,10.4,10.4,66,0.00,CLR,,0.00,WeatherDisplay:10.37,2013-05-30 04:01:00,
2013-05-29 23:02:00,76.1,63.9,29.92,SSE,163,10.4,10.4,66,0.00,CLR,,0.00,WeatherDisplay:10.37,2013-05-30 04:02:00,
2013-05-29 23:07:00,76.1,63.9,29.92,SSE,160,9.2,9.2,66,0.00,CLR,,0.00,WeatherDisplay:10.37,2013-05-30 04:07:00,
2013-05-29 23:12:00,76.0,63.8,29.91,SSE,161,9.2,9.2,66,0.00,CLR,,0.00,WeatherDisplay:10.37,2013-05-30 04:12:00,
2013-05-29 23:17:00,75.9,64.2,29.92,SE,146,10.4,10.4,67,0.00,CLR,,0.00,WeatherDisplay:10.37,2013-05-30 04:17:00,
2013-05-29 23:22:00,75.8,64.1,29.92,SSE,151,6.9,6.9,67,0.00,CLR,,0.00,WeatherDisplay:10.37,2013-05-30 04:22:00,
2013-05-29 23:27:00,75.6,63.9,29.92,SSE,164,9.2,9.2,67,0.00,CLR,,0.00,WeatherDisplay:10.37,2013-05-30 04:27:00,
2013-05-29 23:32:00,75.5,64.2,29.92,SSE,159,9.2,9.2,68,0.00,CLR,,0.00,WeatherDisplay:10.37,2013-05-30 04:32:00,
2013-05-29 23:37:00,75.3,64.0,29.92,South,185,11.5,11.5,68,0.00,CLR,,0.00,WeatherDisplay:10.37,2013-05-30 04:37:00,
2013-05-29 23:42:00,75.2,63.9,29.92,SSE,161,12.7,12.7,68,0.00,CLR,,0.00,WeatherDisplay:10.37,2013-05-30 04:42:00,
2013-05-29 23:47:00,75.1,64.2,29.92,South,184,11.5,11.5,69,0.00,CLR,,0.00,WeatherDisplay:10.37,2013-05-30 04:47:00,
2013-05-29 23:52:00,75.0,64.1,29.92,South,172,12.7,12.7,69,0.00,CLR,,0.00,WeatherDisplay:10.37,2013-05-30 04:52:00,
2013-05-29 23:57:00,74.9,64.5,29.92,South,174,16.0,16.0,70,0.00,CLR,,0.00,WeatherDisplay:10.37,2013-05-30 04:57:00,